sensor_id;sensor_type;location;lat;lon;timestamp;P1;durP1;ratioP1;P2;durP2;ratioP2
5999;SDS011;3028;49.468;7.694;2023-11-18T00:01:18;3.88;;;3.60;;
5999;SDS011;3028;49.468;7.694;2023-11-18T00:03:19;4.07;;;3.78;;
5999;SDS011;3028;49.468;7.694;2023-11-18T00:05:21;3.55;;;3.25;;
5999;SDS011;3028;49.468;7.694;2023-11-18T00:07:25;4.35;;;3.97;;
5999;SDS011;3028;49.468;7.694;2023-11-18T00:09:26;3.20;;;3.00;;
5999;SDS011;3028;49.468;7.694;2023-11-18T00:11:28;4.75;;;4.40;;
5999;SDS011;3028;49.468;7.694;2023-11-18T00:13:30;4.85;;;4.50;;
5999;SDS011;3028;49.468;7.694;2023-11-18T00:15:31;5.72;;;5.22;;
5999;SDS011;3028;49.468;7.694;2023-11-18T00:17:37;5.18;;;4.85;;
5999;SDS011;3028;49.468;7.694;2023-11-18T00:19:39;4.85;;;4.53;;
5999;SDS011;3028;49.468;7.694;2023-11-18T00:21:40;4.55;;;4.18;;
5999;SDS011;3028;49.468;7.694;2023-11-18T00:23:44;3.40;;;3.15;;
5999;SDS011;3028;49.468;7.694;2023-11-18T00:25:46;5.80;;;5.30;;
5999;SDS011;3028;49.468;7.694;2023-11-18T00:27:48;3.78;;;3.38;;
5999;SDS011;3028;49.468;7.694;2023-11-18T00:29:50;5.53;;;5.03;;
5999;SDS011;3028;49.468;7.694;2023-11-18T00:31:52;6.60;;;6.10;;
5999;SDS011;3028;49.468;7.694;2023-11-18T00:33:53;5.63;;;5.05;;
5999;SDS011;3028;49.468;7.694;2023-11-18T00:35:55;5.82;;;5.15;;
5999;SDS011;3028;49.468;7.694;2023-11-18T00:38:00;5.47;;;5.07;;
5999;SDS011;3028;49.468;7.694;2023-11-18T00:40:02;4.93;;;4.53;;
5999;SDS011;3028;49.468;7.694;2023-11-18T00:42:04;4.70;;;4.30;;
5999;SDS011;3028;49.468;7.694;2023-11-18T00:44:06;6.60;;;6.05;;
5999;SDS011;3028;49.468;7.694;2023-11-18T00:46:09;8.80;;;5.07;;
5999;SDS011;3028;49.468;7.694;2023-11-18T00:48:11;5.65;;;5.13;;
5999;SDS011;3028;49.468;7.694;2023-11-18T00:50:13;5.20;;;4.78;;
5999;SDS011;3028;49.468;7.694;2023-11-18T00:52:15;4.97;;;4.50;;
5999;SDS011;3028;49.468;7.694;2023-11-18T00:54:17;4.22;;;3.85;;
5999;SDS011;3028;49.468;7.694;2023-11-18T00:56:19;5.68;;;5.25;;
5999;SDS011;3028;49.468;7.694;2023-11-18T00:58:22;3.80;;;3.60;;
5999;SDS011;3028;49.468;7.694;2023-11-18T01:00:24;4.35;;;4.03;;
5999;SDS011;3028;49.468;7.694;2023-11-18T01:02:27;4.95;;;4.45;;
5999;SDS011;3028;49.468;7.694;2023-11-18T01:04:29;4.70;;;4.30;;
5999;SDS011;3028;49.468;7.694;2023-11-18T01:06:34;4.38;;;3.95;;
5999;SDS011;3028;49.468;7.694;2023-11-18T01:08:36;4.53;;;3.85;;
5999;SDS011;3028;49.468;7.694;2023-11-18T01:10:37;4.15;;;3.83;;
5999;SDS011;3028;49.468;7.694;2023-11-18T01:12:40;4.22;;;3.83;;
5999;SDS011;3028;49.468;7.694;2023-11-18T01:14:42;3.72;;;3.53;;
5999;SDS011;3028;49.468;7.694;2023-11-18T01:16:43;4.32;;;4.03;;
5999;SDS011;3028;49.468;7.694;2023-11-18T01:18:45;4.15;;;3.88;;
5999;SDS011;3028;49.468;7.694;2023-11-18T01:20:47;3.22;;;3.03;;
5999;SDS011;3028;49.468;7.694;2023-11-18T01:22:49;4.32;;;4.03;;
5999;SDS011;3028;49.468;7.694;2023-11-18T01:24:51;4.97;;;3.75;;
5999;SDS011;3028;49.468;7.694;2023-11-18T01:26:52;4.68;;;4.38;;
5999;SDS011;3028;49.468;7.694;2023-11-18T01:28:54;3.67;;;3.42;;
5999;SDS011;3028;49.468;7.694;2023-11-18T01:30:57;4.28;;;3.90;;
5999;SDS011;3028;49.468;7.694;2023-11-18T01:32:58;3.85;;;3.55;;
5999;SDS011;3028;49.468;7.694;2023-11-18T01:35:03;3.22;;;3.03;;
5999;SDS011;3028;49.468;7.694;2023-11-18T01:37:08;5.32;;;4.70;;
5999;SDS011;3028;49.468;7.694;2023-11-18T01:39:10;5.60;;;5.10;;
5999;SDS011;3028;49.468;7.694;2023-11-18T01:41:14;4.63;;;4.22;;
5999;SDS011;3028;49.468;7.694;2023-11-18T01:43:16;4.85;;;4.55;;
5999;SDS011;3028;49.468;7.694;2023-11-18T01:45:18;6.00;;;5.03;;
5999;SDS011;3028;49.468;7.694;2023-11-18T01:47:21;7.03;;;4.35;;
5999;SDS011;3028;49.468;7.694;2023-11-18T01:49:23;5.03;;;4.68;;
5999;SDS011;3028;49.468;7.694;2023-11-18T01:51:25;3.47;;;3.28;;
5999;SDS011;3028;49.468;7.694;2023-11-18T01:53:27;3.78;;;3.47;;
5999;SDS011;3028;49.468;7.694;2023-11-18T01:55:30;5.65;;;5.25;;
5999;SDS011;3028;49.468;7.694;2023-11-18T01:57:32;3.15;;;2.95;;
5999;SDS011;3028;49.468;7.694;2023-11-18T01:59:35;5.35;;;5.05;;
5999;SDS011;3028;49.468;7.694;2023-11-18T02:01:39;4.53;;;4.13;;
5999;SDS011;3028;49.468;7.694;2023-11-18T02:03:41;4.75;;;4.35;;
5999;SDS011;3028;49.468;7.694;2023-11-18T02:05:44;3.88;;;3.67;;
5999;SDS011;3028;49.468;7.694;2023-11-18T02:07:45;4.22;;;3.83;;
5999;SDS011;3028;49.468;7.694;2023-11-18T02:09:48;4.50;;;3.95;;
5999;SDS011;3028;49.468;7.694;2023-11-18T02:11:58;4.10;;;3.70;;
5999;SDS011;3028;49.468;7.694;2023-11-18T02:14:05;4.90;;;4.38;;
5999;SDS011;3028;49.468;7.694;2023-11-18T02:16:12;3.47;;;3.25;;
5999;SDS011;3028;49.468;7.694;2023-11-18T02:18:14;4.28;;;3.95;;
5999;SDS011;3028;49.468;7.694;2023-11-18T02:20:15;5.07;;;4.68;;
5999;SDS011;3028;49.468;7.694;2023-11-18T02:22:20;4.95;;;4.55;;
5999;SDS011;3028;49.468;7.694;2023-11-18T02:24:29;4.10;;;3.65;;
5999;SDS011;3028;49.468;7.694;2023-11-18T02:26:38;3.85;;;3.55;;
5999;SDS011;3028;49.468;7.694;2023-11-18T02:28:39;3.17;;;2.97;;
5999;SDS011;3028;49.468;7.694;2023-11-18T02:30:41;4.28;;;3.97;;
5999;SDS011;3028;49.468;7.694;2023-11-18T02:32:48;4.25;;;3.63;;
5999;SDS011;3028;49.468;7.694;2023-11-18T02:37:14;4.03;;;3.72;;
5999;SDS011;3028;49.468;7.694;2023-11-18T02:39:28;3.83;;;3.55;;
5999;SDS011;3028;49.468;7.694;2023-11-18T02:41:35;3.40;;;3.10;;
5999;SDS011;3028;49.468;7.694;2023-11-18T02:43:37;2.95;;;2.47;;
5999;SDS011;3028;49.468;7.694;2023-11-18T02:45:41;3.67;;;3.42;;
5999;SDS011;3028;49.468;7.694;2023-11-18T02:47:46;3.30;;;3.10;;
5999;SDS011;3028;49.468;7.694;2023-11-18T02:49:53;3.60;;;3.05;;
5999;SDS011;3028;49.468;7.694;2023-11-18T02:51:55;3.65;;;3.35;;
5999;SDS011;3028;49.468;7.694;2023-11-18T02:53:57;3.47;;;3.17;;
5999;SDS011;3028;49.468;7.694;2023-11-18T02:55:59;3.13;;;2.90;;
5999;SDS011;3028;49.468;7.694;2023-11-18T02:58:04;2.67;;;2.47;;
5999;SDS011;3028;49.468;7.694;2023-11-18T03:00:07;4.25;;;3.83;;
5999;SDS011;3028;49.468;7.694;2023-11-18T03:02:18;3.55;;;3.35;;
5999;SDS011;3028;49.468;7.694;2023-11-18T03:04:22;3.30;;;3.05;;
5999;SDS011;3028;49.468;7.694;2023-11-18T03:06:25;9.45;;;3.10;;
5999;SDS011;3028;49.468;7.694;2023-11-18T03:08:27;3.20;;;2.92;;
5999;SDS011;3028;49.468;7.694;2023-11-18T03:10:32;4.00;;;3.70;;
5999;SDS011;3028;49.468;7.694;2023-11-18T03:12:37;2.92;;;2.72;;
5999;SDS011;3028;49.468;7.694;2023-11-18T03:14:39;2.60;;;2.22;;
5999;SDS011;3028;49.468;7.694;2023-11-18T03:16:41;3.45;;;3.15;;
5999;SDS011;3028;49.468;7.694;2023-11-18T03:18:43;2.53;;;2.33;;
5999;SDS011;3028;49.468;7.694;2023-11-18T03:20:44;3.00;;;2.80;;
5999;SDS011;3028;49.468;7.694;2023-11-18T03:22:49;7.10;;;2.55;;
5999;SDS011;3028;49.468;7.694;2023-11-18T03:24:53;2.35;;;2.15;;
5999;SDS011;3028;49.468;7.694;2023-11-18T03:26:55;2.50;;;2.30;;
5999;SDS011;3028;49.468;7.694;2023-11-18T03:28:56;2.92;;;2.72;;
5999;SDS011;3028;49.468;7.694;2023-11-18T03:30:58;2.60;;;2.47;;
5999;SDS011;3028;49.468;7.694;2023-11-18T03:33:00;5.47;;;2.83;;
5999;SDS011;3028;49.468;7.694;2023-11-18T03:35:02;2.20;;;2.08;;
5999;SDS011;3028;49.468;7.694;2023-11-18T03:37:08;2.40;;;2.20;;
5999;SDS011;3028;49.468;7.694;2023-11-18T03:39:10;3.03;;;2.83;;
5999;SDS011;3028;49.468;7.694;2023-11-18T03:41:12;2.83;;;2.63;;
5999;SDS011;3028;49.468;7.694;2023-11-18T03:43:14;2.90;;;2.67;;
5999;SDS011;3028;49.468;7.694;2023-11-18T03:45:16;2.58;;;2.42;;
5999;SDS011;3028;49.468;7.694;2023-11-18T03:47:19;2.70;;;2.50;;
5999;SDS011;3028;49.468;7.694;2023-11-18T03:49:21;2.63;;;2.42;;
5999;SDS011;3028;49.468;7.694;2023-11-18T03:51:22;2.92;;;2.65;;
5999;SDS011;3028;49.468;7.694;2023-11-18T03:53:24;2.85;;;2.65;;
5999;SDS011;3028;49.468;7.694;2023-11-18T03:55:26;2.08;;;1.98;;
5999;SDS011;3028;49.468;7.694;2023-11-18T03:57:28;3.22;;;3.03;;
5999;SDS011;3028;49.468;7.694;2023-11-18T03:59:29;2.00;;;1.90;;
5999;SDS011;3028;49.468;7.694;2023-11-18T04:01:31;2.60;;;2.40;;
5999;SDS011;3028;49.468;7.694;2023-11-18T04:03:34;2.88;;;2.63;;
5999;SDS011;3028;49.468;7.694;2023-11-18T04:05:36;3.65;;;3.35;;
5999;SDS011;3028;49.468;7.694;2023-11-18T04:07:40;2.50;;;2.30;;
5999;SDS011;3028;49.468;7.694;2023-11-18T04:09:44;2.88;;;2.72;;
5999;SDS011;3028;49.468;7.694;2023-11-18T04:11:46;2.80;;;2.45;;
5999;SDS011;3028;49.468;7.694;2023-11-18T04:13:48;1.90;;;1.80;;
5999;SDS011;3028;49.468;7.694;2023-11-18T04:15:50;1.55;;;1.40;;
5999;SDS011;3028;49.468;7.694;2023-11-18T04:17:51;2.65;;;2.45;;
5999;SDS011;3028;49.468;7.694;2023-11-18T04:19:53;3.40;;;3.13;;
5999;SDS011;3028;49.468;7.694;2023-11-18T04:21:57;3.45;;;3.15;;
5999;SDS011;3028;49.468;7.694;2023-11-18T04:23:58;2.35;;;2.20;;
5999;SDS011;3028;49.468;7.694;2023-11-18T04:26:01;3.03;;;2.78;;
5999;SDS011;3028;49.468;7.694;2023-11-18T04:28:04;2.75;;;2.55;;
5999;SDS011;3028;49.468;7.694;2023-11-18T04:30:06;2.38;;;2.22;;
5999;SDS011;3028;49.468;7.694;2023-11-18T04:32:10;2.10;;;1.88;;
5999;SDS011;3028;49.468;7.694;2023-11-18T04:34:12;2.78;;;2.55;;
5999;SDS011;3028;49.468;7.694;2023-11-18T04:36:15;2.00;;;1.73;;
5999;SDS011;3028;49.468;7.694;2023-11-18T04:38:17;2.45;;;2.25;;
5999;SDS011;3028;49.468;7.694;2023-11-18T04:40:20;2.75;;;2.55;;
5999;SDS011;3028;49.468;7.694;2023-11-18T04:42:24;10.90;;;2.83;;
5999;SDS011;3028;49.468;7.694;2023-11-18T04:44:26;2.55;;;2.38;;
5999;SDS011;3028;49.468;7.694;2023-11-18T04:46:29;3.58;;;3.28;;
5999;SDS011;3028;49.468;7.694;2023-11-18T04:48:31;4.93;;;2.53;;
5999;SDS011;3028;49.468;7.694;2023-11-18T04:50:34;2.67;;;2.47;;
5999;SDS011;3028;49.468;7.694;2023-11-18T04:52:36;2.65;;;2.42;;
5999;SDS011;3028;49.468;7.694;2023-11-18T04:54:38;3.03;;;2.83;;
5999;SDS011;3028;49.468;7.694;2023-11-18T04:56:39;2.53;;;2.33;;
5999;SDS011;3028;49.468;7.694;2023-11-18T04:58:41;1.95;;;1.80;;
5999;SDS011;3028;49.468;7.694;2023-11-18T05:00:43;2.53;;;2.33;;
5999;SDS011;3028;49.468;7.694;2023-11-18T05:02:45;2.03;;;1.92;;
5999;SDS011;3028;49.468;7.694;2023-11-18T05:04:50;2.55;;;2.35;;
5999;SDS011;3028;49.468;7.694;2023-11-18T05:06:52;3.33;;;3.13;;
5999;SDS011;3028;49.468;7.694;2023-11-18T05:08:54;2.65;;;2.45;;
5999;SDS011;3028;49.468;7.694;2023-11-18T05:10:56;2.83;;;2.33;;
5999;SDS011;3028;49.468;7.694;2023-11-18T05:12:59;3.05;;;2.85;;
5999;SDS011;3028;49.468;7.694;2023-11-18T05:15:01;2.17;;;2.05;;
5999;SDS011;3028;49.468;7.694;2023-11-18T05:17:05;2.35;;;2.25;;
5999;SDS011;3028;49.468;7.694;2023-11-18T05:19:07;2.40;;;2.25;;
5999;SDS011;3028;49.468;7.694;2023-11-18T05:21:09;2.83;;;2.63;;
5999;SDS011;3028;49.468;7.694;2023-11-18T05:23:12;2.58;;;2.03;;
5999;SDS011;3028;49.468;7.694;2023-11-18T05:25:14;4.00;;;2.85;;
5999;SDS011;3028;49.468;7.694;2023-11-18T05:27:15;2.90;;;2.67;;
5999;SDS011;3028;49.468;7.694;2023-11-18T05:29:18;4.00;;;3.70;;
5999;SDS011;3028;49.468;7.694;2023-11-18T05:31:22;3.45;;;3.13;;
5999;SDS011;3028;49.468;7.694;2023-11-18T05:33:23;4.20;;;3.53;;
5999;SDS011;3028;49.468;7.694;2023-11-18T05:35:26;2.55;;;2.38;;
5999;SDS011;3028;49.468;7.694;2023-11-18T05:37:29;2.40;;;2.17;;
5999;SDS011;3028;49.468;7.694;2023-11-18T05:39:36;2.67;;;2.58;;
5999;SDS011;3028;49.468;7.694;2023-11-18T05:41:44;2.55;;;2.35;;
5999;SDS011;3028;49.468;7.694;2023-11-18T05:43:47;3.47;;;3.17;;
5999;SDS011;3028;49.468;7.694;2023-11-18T05:45:53;3.17;;;3.03;;
5999;SDS011;3028;49.468;7.694;2023-11-18T05:48:16;2.92;;;2.63;;
5999;SDS011;3028;49.468;7.694;2023-11-18T05:50:18;3.28;;;3.08;;
5999;SDS011;3028;49.468;7.694;2023-11-18T05:52:20;2.58;;;2.38;;
5999;SDS011;3028;49.468;7.694;2023-11-18T05:54:22;3.30;;;3.08;;
5999;SDS011;3028;49.468;7.694;2023-11-18T05:56:23;2.85;;;2.65;;
5999;SDS011;3028;49.468;7.694;2023-11-18T05:58:26;5.07;;;4.35;;
5999;SDS011;3028;49.468;7.694;2023-11-18T06:00:29;3.67;;;2.80;;
5999;SDS011;3028;49.468;7.694;2023-11-18T06:02:33;2.40;;;2.20;;
5999;SDS011;3028;49.468;7.694;2023-11-18T06:04:35;4.57;;;3.80;;
5999;SDS011;3028;49.468;7.694;2023-11-18T06:06:38;2.75;;;2.53;;
5999;SDS011;3028;49.468;7.694;2023-11-18T06:08:40;2.38;;;2.28;;
5999;SDS011;3028;49.468;7.694;2023-11-18T06:10:43;2.45;;;2.08;;
5999;SDS011;3028;49.468;7.694;2023-11-18T06:12:46;2.55;;;2.20;;
5999;SDS011;3028;49.468;7.694;2023-11-18T06:14:48;2.45;;;2.25;;
5999;SDS011;3028;49.468;7.694;2023-11-18T06:16:52;2.65;;;2.08;;
5999;SDS011;3028;49.468;7.694;2023-11-18T06:18:55;2.55;;;2.38;;
5999;SDS011;3028;49.468;7.694;2023-11-18T06:20:59;2.47;;;2.30;;
5999;SDS011;3028;49.468;7.694;2023-11-18T06:23:01;5.63;;;3.35;;
5999;SDS011;3028;49.468;7.694;2023-11-18T06:25:03;2.72;;;2.53;;
5999;SDS011;3028;49.468;7.694;2023-11-18T06:27:08;2.33;;;2.22;;
5999;SDS011;3028;49.468;7.694;2023-11-18T06:29:11;2.28;;;2.10;;
5999;SDS011;3028;49.468;7.694;2023-11-18T06:31:16;2.25;;;2.08;;
5999;SDS011;3028;49.468;7.694;2023-11-18T06:33:18;1.92;;;1.75;;
5999;SDS011;3028;49.468;7.694;2023-11-18T06:35:24;2.78;;;2.58;;
5999;SDS011;3028;49.468;7.694;2023-11-18T06:37:31;2.40;;;2.30;;
5999;SDS011;3028;49.468;7.694;2023-11-18T06:39:33;2.30;;;2.10;;
5999;SDS011;3028;49.468;7.694;2023-11-18T06:41:41;5.90;;;2.45;;
5999;SDS011;3028;49.468;7.694;2023-11-18T06:43:50;2.25;;;2.10;;
5999;SDS011;3028;49.468;7.694;2023-11-18T06:46:02;5.07;;;2.53;;
5999;SDS011;3028;49.468;7.694;2023-11-18T06:48:04;1.65;;;1.55;;
5999;SDS011;3028;49.468;7.694;2023-11-18T06:50:07;1.52;;;1.38;;
5999;SDS011;3028;49.468;7.694;2023-11-18T06:52:10;2.15;;;2.00;;
5999;SDS011;3028;49.468;7.694;2023-11-18T06:54:14;2.78;;;2.15;;
5999;SDS011;3028;49.468;7.694;2023-11-18T06:56:16;4.20;;;3.22;;
5999;SDS011;3028;49.468;7.694;2023-11-18T06:58:18;2.17;;;2.08;;
5999;SDS011;3028;49.468;7.694;2023-11-18T07:00:20;2.15;;;1.95;;
5999;SDS011;3028;49.468;7.694;2023-11-18T07:02:23;2.17;;;2.03;;
5999;SDS011;3028;49.468;7.694;2023-11-18T07:04:25;2.60;;;2.50;;
5999;SDS011;3028;49.468;7.694;2023-11-18T07:06:27;2.60;;;2.50;;
5999;SDS011;3028;49.468;7.694;2023-11-18T07:08:28;5.32;;;2.38;;
5999;SDS011;3028;49.468;7.694;2023-11-18T07:10:30;2.38;;;2.28;;
5999;SDS011;3028;49.468;7.694;2023-11-18T07:12:35;2.22;;;2.13;;
5999;SDS011;3028;49.468;7.694;2023-11-18T07:14:39;1.45;;;1.35;;
5999;SDS011;3028;49.468;7.694;2023-11-18T07:16:41;2.53;;;2.40;;
5999;SDS011;3028;49.468;7.694;2023-11-18T07:18:43;2.65;;;2.42;;
5999;SDS011;3028;49.468;7.694;2023-11-18T07:20:45;5.75;;;3.35;;
5999;SDS011;3028;49.468;7.694;2023-11-18T07:22:47;3.53;;;3.22;;
5999;SDS011;3028;49.468;7.694;2023-11-18T07:24:49;4.80;;;2.70;;
5999;SDS011;3028;49.468;7.694;2023-11-18T07:26:50;2.05;;;1.83;;
5999;SDS011;3028;49.468;7.694;2023-11-18T07:28:53;2.38;;;2.17;;
5999;SDS011;3028;49.468;7.694;2023-11-18T07:30:54;2.28;;;2.17;;
5999;SDS011;3028;49.468;7.694;2023-11-18T07:32:56;4.18;;;3.90;;
5999;SDS011;3028;49.468;7.694;2023-11-18T07:35:01;1.77;;;1.67;;
5999;SDS011;3028;49.468;7.694;2023-11-18T07:37:04;2.85;;;2.47;;
5999;SDS011;3028;49.468;7.694;2023-11-18T07:39:06;2.05;;;1.65;;
5999;SDS011;3028;49.468;7.694;2023-11-18T07:41:17;2.30;;;2.10;;
5999;SDS011;3028;49.468;7.694;2023-11-18T07:43:25;1.95;;;1.58;;
5999;SDS011;3028;49.468;7.694;2023-11-18T07:45:37;3.15;;;2.03;;
5999;SDS011;3028;49.468;7.694;2023-11-18T07:47:39;1.85;;;1.75;;
5999;SDS011;3028;49.468;7.694;2023-11-18T07:49:42;3.10;;;2.90;;
5999;SDS011;3028;49.468;7.694;2023-11-18T07:51:44;2.58;;;2.35;;
5999;SDS011;3028;49.468;7.694;2023-11-18T07:53:45;1.98;;;1.83;;
5999;SDS011;3028;49.468;7.694;2023-11-18T07:55:47;1.75;;;1.65;;
5999;SDS011;3028;49.468;7.694;2023-11-18T07:57:49;1.60;;;1.50;;
5999;SDS011;3028;49.468;7.694;2023-11-18T07:59:52;2.97;;;2.78;;
5999;SDS011;3028;49.468;7.694;2023-11-18T08:01:54;1.60;;;1.50;;
5999;SDS011;3028;49.468;7.694;2023-11-18T08:03:57;3.00;;;2.45;;
5999;SDS011;3028;49.468;7.694;2023-11-18T08:06:00;1.38;;;1.27;;
5999;SDS011;3028;49.468;7.694;2023-11-18T08:08:03;2.05;;;1.88;;
5999;SDS011;3028;49.468;7.694;2023-11-18T08:10:06;4.80;;;2.40;;
5999;SDS011;3028;49.468;7.694;2023-11-18T08:12:08;2.33;;;2.22;;
5999;SDS011;3028;49.468;7.694;2023-11-18T08:14:10;2.65;;;2.55;;
5999;SDS011;3028;49.468;7.694;2023-11-18T08:16:12;1.67;;;1.58;;
5999;SDS011;3028;49.468;7.694;2023-11-18T08:18:16;3.42;;;3.00;;
5999;SDS011;3028;49.468;7.694;2023-11-18T08:20:18;2.85;;;1.73;;
5999;SDS011;3028;49.468;7.694;2023-11-18T08:22:22;4.07;;;2.47;;
5999;SDS011;3028;49.468;7.694;2023-11-18T08:24:24;4.30;;;1.88;;
5999;SDS011;3028;49.468;7.694;2023-11-18T08:26:26;2.22;;;2.03;;
5999;SDS011;3028;49.468;7.694;2023-11-18T08:28:28;3.30;;;3.10;;
5999;SDS011;3028;49.468;7.694;2023-11-18T08:30:32;5.18;;;2.95;;
5999;SDS011;3028;49.468;7.694;2023-11-18T08:32:35;2.03;;;1.25;;
5999;SDS011;3028;49.468;7.694;2023-11-18T08:34:37;2.13;;;2.03;;
5999;SDS011;3028;49.468;7.694;2023-11-18T08:36:39;2.15;;;2.03;;
5999;SDS011;3028;49.468;7.694;2023-11-18T08:38:41;8.25;;;2.13;;
5999;SDS011;3028;49.468;7.694;2023-11-18T08:40:45;4.70;;;2.08;;
5999;SDS011;3028;49.468;7.694;2023-11-18T08:42:53;3.50;;;2.13;;
5999;SDS011;3028;49.468;7.694;2023-11-18T08:44:57;1.40;;;1.33;;
5999;SDS011;3028;49.468;7.694;2023-11-18T08:47:03;3.42;;;3.22;;
5999;SDS011;3028;49.468;7.694;2023-11-18T08:49:10;1.77;;;1.67;;
5999;SDS011;3028;49.468;7.694;2023-11-18T08:51:14;1.52;;;1.42;;
5999;SDS011;3028;49.468;7.694;2023-11-18T08:53:17;1.52;;;1.42;;
5999;SDS011;3028;49.468;7.694;2023-11-18T08:55:20;1.75;;;1.65;;
5999;SDS011;3028;49.468;7.694;2023-11-18T08:57:22;4.72;;;2.17;;
5999;SDS011;3028;49.468;7.694;2023-11-18T08:59:27;6.40;;;2.33;;
5999;SDS011;3028;49.468;7.694;2023-11-18T09:01:28;2.20;;;2.00;;
5999;SDS011;3028;49.468;7.694;2023-11-18T09:03:33;6.82;;;2.70;;
5999;SDS011;3028;49.468;7.694;2023-11-18T09:05:38;2.08;;;1.15;;
5999;SDS011;3028;49.468;7.694;2023-11-18T09:07:40;1.75;;;1.65;;
5999;SDS011;3028;49.468;7.694;2023-11-18T09:09:44;1.48;;;1.38;;
5999;SDS011;3028;49.468;7.694;2023-11-18T09:11:46;1.65;;;1.17;;
5999;SDS011;3028;49.468;7.694;2023-11-18T09:13:50;2.58;;;1.63;;
5999;SDS011;3028;49.468;7.694;2023-11-18T09:15:56;1.83;;;1.48;;
5999;SDS011;3028;49.468;7.694;2023-11-18T09:17:59;10.13;;;1.80;;
5999;SDS011;3028;49.468;7.694;2023-11-18T09:20:01;1.48;;;1.38;;
5999;SDS011;3028;49.468;7.694;2023-11-18T09:22:03;1.40;;;1.30;;
5999;SDS011;3028;49.468;7.694;2023-11-18T09:24:06;1.67;;;1.58;;
5999;SDS011;3028;49.468;7.694;2023-11-18T09:26:13;1.23;;;1.17;;
5999;SDS011;3028;49.468;7.694;2023-11-18T09:28:16;1.98;;;1.88;;
5999;SDS011;3028;49.468;7.694;2023-11-18T09:30:18;1.40;;;1.30;;
5999;SDS011;3028;49.468;7.694;2023-11-18T09:32:23;4.80;;;1.48;;
5999;SDS011;3028;49.468;7.694;2023-11-18T09:34:27;1.02;;;1.02;;
5999;SDS011;3028;49.468;7.694;2023-11-18T09:36:34;0.90;;;0.90;;
5999;SDS011;3028;49.468;7.694;2023-11-18T09:38:38;0.80;;;0.80;;
5999;SDS011;3028;49.468;7.694;2023-11-18T09:40:44;1.05;;;1.05;;
5999;SDS011;3028;49.468;7.694;2023-11-18T09:42:47;2.10;;;1.50;;
5999;SDS011;3028;49.468;7.694;2023-11-18T09:44:50;1.38;;;1.38;;
5999;SDS011;3028;49.468;7.694;2023-11-18T09:46:54;2.13;;;2.03;;
5999;SDS011;3028;49.468;7.694;2023-11-18T09:49:06;2.25;;;1.13;;
5999;SDS011;3028;49.468;7.694;2023-11-18T09:51:25;1.00;;;1.00;;
5999;SDS011;3028;49.468;7.694;2023-11-18T09:53:37;1.10;;;1.10;;
5999;SDS011;3028;49.468;7.694;2023-11-18T09:56:01;8.73;;;1.10;;
5999;SDS011;3028;49.468;7.694;2023-11-18T09:58:15;1.67;;;1.30;;
5999;SDS011;3028;49.468;7.694;2023-11-18T10:00:20;1.63;;;1.52;;
5999;SDS011;3028;49.468;7.694;2023-11-18T10:02:23;7.20;;;3.45;;
5999;SDS011;3028;49.468;7.694;2023-11-18T10:04:25;0.68;;;0.68;;
5999;SDS011;3028;49.468;7.694;2023-11-18T10:06:29;3.42;;;1.88;;
5999;SDS011;3028;49.468;7.694;2023-11-18T10:08:35;1.00;;;0.98;;
5999;SDS011;3028;49.468;7.694;2023-11-18T10:10:39;1.85;;;1.83;;
5999;SDS011;3028;49.468;7.694;2023-11-18T10:12:47;2.03;;;1.80;;
5999;SDS011;3028;49.468;7.694;2023-11-18T10:14:53;0.90;;;0.90;;
5999;SDS011;3028;49.468;7.694;2023-11-18T10:16:57;1.75;;;1.63;;
5999;SDS011;3028;49.468;7.694;2023-11-18T10:18:59;1.08;;;1.08;;
5999;SDS011;3028;49.468;7.694;2023-11-18T10:21:02;1.40;;;1.33;;
5999;SDS011;3028;49.468;7.694;2023-11-18T10:23:16;1.90;;;1.80;;
5999;SDS011;3028;49.468;7.694;2023-11-18T10:25:26;1.83;;;1.67;;
5999;SDS011;3028;49.468;7.694;2023-11-18T10:27:27;2.85;;;1.42;;
5999;SDS011;3028;49.468;7.694;2023-11-18T10:29:29;2.03;;;1.20;;
5999;SDS011;3028;49.468;7.694;2023-11-18T10:31:31;0.93;;;0.93;;
5999;SDS011;3028;49.468;7.694;2023-11-18T10:33:39;2.63;;;1.95;;
5999;SDS011;3028;49.468;7.694;2023-11-18T10:35:50;1.40;;;1.30;;
5999;SDS011;3028;49.468;7.694;2023-11-18T10:37:52;1.50;;;1.40;;
5999;SDS011;3028;49.468;7.694;2023-11-18T10:39:54;2.53;;;1.77;;
5999;SDS011;3028;49.468;7.694;2023-11-18T10:41:58;1.30;;;1.30;;
5999;SDS011;3028;49.468;7.694;2023-11-18T10:44:05;1.95;;;0.95;;
5999;SDS011;3028;49.468;7.694;2023-11-18T10:46:12;1.63;;;1.30;;
5999;SDS011;3028;49.468;7.694;2023-11-18T10:48:15;1.50;;;1.40;;
5999;SDS011;3028;49.468;7.694;2023-11-18T10:50:19;4.05;;;1.13;;
5999;SDS011;3028;49.468;7.694;2023-11-18T10:52:23;1.33;;;1.30;;
5999;SDS011;3028;49.468;7.694;2023-11-18T10:54:27;1.00;;;1.00;;
5999;SDS011;3028;49.468;7.694;2023-11-18T10:56:29;1.50;;;1.40;;
5999;SDS011;3028;49.468;7.694;2023-11-18T10:58:37;1.55;;;1.48;;
5999;SDS011;3028;49.468;7.694;2023-11-18T11:00:45;2.13;;;1.10;;
5999;SDS011;3028;49.468;7.694;2023-11-18T11:02:57;1.48;;;1.23;;
5999;SDS011;3028;49.468;7.694;2023-11-18T11:05:00;0.80;;;0.80;;
5999;SDS011;3028;49.468;7.694;2023-11-18T11:07:02;2.97;;;1.60;;
5999;SDS011;3028;49.468;7.694;2023-11-18T11:09:04;1.90;;;1.20;;
5999;SDS011;3028;49.468;7.694;2023-11-18T11:11:11;8.90;;;1.88;;
5999;SDS011;3028;49.468;7.694;2023-11-18T11:13:17;0.80;;;0.80;;
5999;SDS011;3028;49.468;7.694;2023-11-18T11:15:23;0.80;;;0.80;;
5999;SDS011;3028;49.468;7.694;2023-11-18T11:17:29;1.70;;;1.40;;
5999;SDS011;3028;49.468;7.694;2023-11-18T11:19:33;0.93;;;0.93;;
5999;SDS011;3028;49.468;7.694;2023-11-18T11:22:04;4.60;;;1.13;;
5999;SDS011;3028;49.468;7.694;2023-11-18T11:26:59;1.00;;;1.00;;
5999;SDS011;3028;49.468;7.694;2023-11-18T11:29:25;0.95;;;0.95;;
5999;SDS011;3028;49.468;7.694;2023-11-18T11:31:39;1.08;;;1.08;;
5999;SDS011;3028;49.468;7.694;2023-11-18T11:33:43;1.05;;;1.02;;
5999;SDS011;3028;49.468;7.694;2023-11-18T11:36:12;1.40;;;1.40;;
5999;SDS011;3028;49.468;7.694;2023-11-18T11:38:17;3.00;;;1.23;;
5999;SDS011;3028;49.468;7.694;2023-11-18T11:40:20;1.65;;;1.55;;
5999;SDS011;3028;49.468;7.694;2023-11-18T11:42:24;1.13;;;1.13;;
5999;SDS011;3028;49.468;7.694;2023-11-18T11:44:26;2.15;;;1.73;;
5999;SDS011;3028;49.468;7.694;2023-11-18T11:46:32;1.83;;;1.73;;
5999;SDS011;3028;49.468;7.694;2023-11-18T11:48:37;1.05;;;1.05;;
5999;SDS011;3028;49.468;7.694;2023-11-18T11:53:10;2.88;;;1.83;;
5999;SDS011;3028;49.468;7.694;2023-11-18T11:55:19;1.63;;;1.52;;
5999;SDS011;3028;49.468;7.694;2023-11-18T11:57:25;0.90;;;0.90;;
5999;SDS011;3028;49.468;7.694;2023-11-18T12:01:46;3.90;;;2.80;;
5999;SDS011;3028;49.468;7.694;2023-11-18T12:03:54;1.10;;;1.10;;
5999;SDS011;3028;49.468;7.694;2023-11-18T12:05:59;1.58;;;1.48;;
5999;SDS011;3028;49.468;7.694;2023-11-18T12:08:13;0.80;;;0.80;;
5999;SDS011;3028;49.468;7.694;2023-11-18T12:10:18;0.90;;;0.90;;
5999;SDS011;3028;49.468;7.694;2023-11-18T12:12:23;1.00;;;1.00;;
5999;SDS011;3028;49.468;7.694;2023-11-18T12:14:29;0.90;;;0.90;;
5999;SDS011;3028;49.468;7.694;2023-11-18T12:19:28;0.80;;;0.80;;
5999;SDS011;3028;49.468;7.694;2023-11-18T12:21:53;1.88;;;1.73;;
5999;SDS011;3028;49.468;7.694;2023-11-18T12:28:41;1.48;;;1.38;;
5999;SDS011;3028;49.468;7.694;2023-11-18T12:30:47;6.25;;;1.27;;
5999;SDS011;3028;49.468;7.694;2023-11-18T12:32:59;1.23;;;1.23;;
5999;SDS011;3028;49.468;7.694;2023-11-18T12:35:11;0.93;;;0.93;;
5999;SDS011;3028;49.468;7.694;2023-11-18T12:41:55;1.38;;;1.27;;
5999;SDS011;3028;49.468;7.694;2023-11-18T12:48:57;0.70;;;0.70;;
5999;SDS011;3028;49.468;7.694;2023-11-18T12:51:01;0.90;;;0.90;;
5999;SDS011;3028;49.468;7.694;2023-11-18T12:53:02;2.03;;;1.40;;
5999;SDS011;3028;49.468;7.694;2023-11-18T12:55:08;0.93;;;0.93;;
5999;SDS011;3028;49.468;7.694;2023-11-18T12:57:10;2.63;;;1.17;;
5999;SDS011;3028;49.468;7.694;2023-11-18T12:59:16;0.80;;;0.80;;
5999;SDS011;3028;49.468;7.694;2023-11-18T13:01:19;1.17;;;1.10;;
5999;SDS011;3028;49.468;7.694;2023-11-18T13:03:21;1.17;;;0.98;;
5999;SDS011;3028;49.468;7.694;2023-11-18T13:05:23;1.13;;;1.13;;
5999;SDS011;3028;49.468;7.694;2023-11-18T13:07:31;2.78;;;1.08;;
5999;SDS011;3028;49.468;7.694;2023-11-18T13:09:32;0.90;;;0.90;;
5999;SDS011;3028;49.468;7.694;2023-11-18T13:11:37;1.08;;;1.08;;
5999;SDS011;3028;49.468;7.694;2023-11-18T13:13:43;0.82;;;0.82;;
5999;SDS011;3028;49.468;7.694;2023-11-18T13:15:46;5.57;;;1.25;;
5999;SDS011;3028;49.468;7.694;2023-11-18T13:20:12;1.33;;;1.05;;